Time;durP1;ratioP1;P1;durP2;ratioP2;P2;SDS_P1;SDS_P2;PMS_P1;PMS_P2;Temp;Humidity;BMP_temperature;BMP_pressure;BME280_temperature;BME280_humidity;BME280_pressure;Samples;Min_cycle;Max_cycle;Signal;HPM_P1;HPM_P2
2023/11/25 00:00:13;;;;;;;6.33;4.90;;;;;21.30;99979.00;;;;2064374;28;20211;-65
2023/11/25 00:01:14;;;;;;;8.10;5.57;;;;;21.30;99981.00;;;;2062539;28;20222;-65
2023/11/25 00:02:14;;;;;;;6.97;5.00;;;;;21.30;99976.00;;;;2065070;28;20217;-65
2023/11/25 00:03:14;;;;;;;7.27;5.10;;;;;21.30;99982.00;;;;2065488;28;20573;-65
2023/11/25 00:04:15;;;;;;;7.40;4.60;;;;;21.30;99968.00;;;;2053379;28;20214;-65
2023/11/25 00:05:15;;;;;;;5.80;4.23;;;;;21.30;99971.00;;;;2065597;28;20269;-65
2023/11/25 00:06:16;;;;;;;6.23;4.80;;;;;21.30;99973.00;;;;2061632;28;20214;-65
2023/11/25 00:07:16;;;;;;;5.53;4.40;;;;;21.20;99963.00;;;;2066882;28;20229;-65
2023/11/25 00:08:16;;;;;;;7.53;4.93;;;;;21.20;99968.00;;;;2066464;28;20229;-65
2023/11/25 00:09:17;;;;;;;6.43;4.33;;;;;21.20;99969.00;;;;2050061;28;20210;-65
2023/11/25 00:10:18;;;;;;;6.23;4.20;;;;;21.20;99969.00;;;;2062989;28;20270;-65
2023/11/25 00:11:19;;;;;;;6.97;4.35;;;;;21.20;99964.00;;;;2062341;28;20309;-65
2023/11/25 00:12:19;;;;;;;6.33;3.40;;;;;21.20;99968.00;;;;2064092;28;20605;-65
2023/11/25 00:13:20;;;;;;;6.13;3.90;;;;;21.20;99969.00;;;;2059785;28;20219;-65
2023/11/25 00:14:21;;;;;;;5.93;4.18;;;;;21.20;99979.00;;;;2052716;28;20261;-65
2023/11/25 00:15:23;;;;;;;5.87;3.90;;;;;21.20;99976.00;;;;2063631;28;20752;-65
2023/11/25 00:16:24;;;;;;;5.93;3.75;;;;;21.20;99972.00;;;;2064238;28;20265;-65
2023/11/25 00:17:28;;;;;;;5.23;3.93;;;;;21.10;99976.00;;;;2065338;28;20207;-65
2023/11/25 00:18:28;;;;;;;5.05;3.65;;;;;21.20;99971.00;;;;2063108;28;20633;-65
2023/11/25 00:19:28;;;;;;;4.20;3.63;;;;;21.20;99972.00;;;;2053679;28;20218;-65
2023/11/25 00:20:29;;;;;;;5.40;3.50;;;;;21.20;99979.00;;;;2062369;28;20226;-65
2023/11/25 00:21:30;;;;;;;5.63;4.00;;;;;21.10;99972.00;;;;2065087;28;20252;-65
2023/11/25 00:22:30;;;;;;;4.30;3.50;;;;;21.10;99978.00;;;;2061703;28;20588;-65
2023/11/25 00:23:30;;;;;;;5.60;3.30;;;;;21.10;99978.00;;;;2064894;28;20241;-65
2023/11/25 00:24:31;;;;;;;7.60;3.83;;;;;21.20;99980.00;;;;2054959;28;20233;-65
2023/11/25 00:25:31;;;;;;;5.20;3.30;;;;;21.20;99975.00;;;;2062709;28;20253;-65
2023/11/25 00:26:32;;;;;;;5.20;3.70;;;;;21.10;99978.00;;;;2068126;28;20230;-65
2023/11/25 00:27:32;;;;;;;5.97;3.73;;;;;21.10;99977.00;;;;2061160;28;20222;-65
2023/11/25 00:28:33;;;;;;;4.23;3.30;;;;;21.10;99974.00;;;;2066811;28;20221;-65
2023/11/25 00:29:33;;;;;;;4.53;2.60;;;;;21.10;99978.00;;;;2054630;28;20298;-65
2023/11/25 00:30:33;;;;;;;5.00;3.17;;;;;21.10;99980.00;;;;2063216;28;20217;-65
2023/11/25 00:31:34;;;;;;;5.70;3.10;;;;;21.10;99977.00;;;;2063595;28;20222;-65
2023/11/25 00:32:37;;;;;;;4.83;3.60;;;;;21.20;99988.00;;;;2060627;28;20218;-65
2023/11/25 00:33:37;;;;;;;5.75;3.05;;;;;21.10;99979.00;;;;2059836;28;20583;-65
2023/11/25 00:34:37;;;;;;;6.23;3.20;;;;;21.10;99987.00;;;;2063737;28;20257;-65
2023/11/25 00:35:38;;;;;;;4.50;2.87;;;;;21.10;99980.00;;;;2068198;28;20226;-65
2023/11/25 00:36:38;;;;;;;4.27;2.93;;;;;21.10;99982.00;;;;2063530;28;20685;-65
2023/11/25 00:37:42;;;;;;;4.63;2.50;;;;;21.10;99984.00;;;;2063138;28;20273;-65
2023/11/25 00:38:42;;;;;;;5.10;3.08;;;;;21.10;99978.00;;;;2045801;28;20235;-65
2023/11/25 00:39:43;;;;;;;4.27;2.77;;;;;21.10;99973.00;;;;2063543;28;20587;-65
2023/11/25 00:40:43;;;;;;;3.03;2.30;;;;;21.00;99970.00;;;;2062881;28;20626;-65
2023/11/25 00:41:43;;;;;;;4.37;2.40;;;;;21.10;99977.00;;;;2062065;28;20254;-65
2023/11/25 00:42:44;;;;;;;3.30;2.77;;;;;21.10;99982.00;;;;2062472;28;20211;-65
2023/11/25 00:43:44;;;;;;;4.67;3.00;;;;;21.10;99976.00;;;;2051737;28;20242;-65
2023/11/25 00:44:44;;;;;;;4.20;2.77;;;;;21.10;99987.00;;;;2055039;28;20302;-65
2023/11/25 00:45:46;;;;;;;4.00;2.70;;;;;21.10;99981.00;;;;2054374;28;20220;-65
2023/11/25 00:46:47;;;;;;;4.05;2.58;;;;;21.00;99981.00;;;;2062363;28;20562;-65
2023/11/25 00:47:47;;;;;;;3.67;2.60;;;;;21.00;99986.00;;;;2061410;28;20258;-65
2023/11/25 00:48:48;;;;;;;5.47;2.53;;;;;21.00;99984.00;;;;2053976;28;20207;-65
2023/11/25 00:49:49;;;;;;;4.80;2.53;;;;;21.00;99988.00;;;;2063639;28;20298;-65
2023/11/25 00:50:49;;;;;;;3.72;2.25;;;;;21.00;99989.00;;;;2063771;28;20214;-66
2023/11/25 00:51:50;;;;;;;4.77;2.80;;;;;21.00;99982.00;;;;2054987;28;20216;-65
2023/11/25 00:52:50;;;;;;;4.10;2.43;;;;;21.00;99993.00;;;;2054703;28;20459;-65
2023/11/25 00:53:50;;;;;;;4.20;2.63;;;;;21.00;100000.00;;;;2053900;28;20222;-65
2023/11/25 00:54:51;;;;;;;5.07;2.60;;;;;21.00;99990.00;;;;2063105;28;20230;-65
2023/11/25 00:55:51;;;;;;;5.93;2.67;;;;;21.00;100001.00;;;;2061619;28;20219;-65
2023/11/25 00:56:51;;;;;;;4.13;2.47;;;;;21.00;99993.00;;;;2062699;28;20272;-65
2023/11/25 00:57:52;;;;;;;4.47;2.43;;;;;21.00;100001.00;;;;2061871;28;20211;-65
2023/11/25 00:58:52;;;;;;;3.40;2.07;;;;;21.00;100005.00;;;;2052090;28;20289;-65
2023/11/25 00:59:53;;;;;;;3.10;2.13;;;;;21.00;100004.00;;;;2067422;28;20210;-65
2023/11/25 01:00:53;;;;;;;3.37;2.10;;;;;21.00;100003.00;;;;2063123;28;20250;-65
2023/11/25 01:01:54;;;;;;;3.33;2.20;;;;;21.00;99997.00;;;;2052223;28;20214;-65
2023/11/25 01:02:56;;;;;;;3.33;1.77;;;;;21.00;100006.00;;;;2072374;28;20206;-65
2023/11/25 01:03:56;;;;;;;5.55;2.05;;;;;21.00;100007.00;;;;2060468;28;20678;-65
2023/11/25 01:04:56;;;;;;;4.40;2.17;;;;;21.00;99997.00;;;;2057110;28;20212;-65
2023/11/25 01:05:57;;;;;;;3.27;2.00;;;;;20.90;100006.00;;;;2062059;28;20215;-65
2023/11/25 01:06:57;;;;;;;3.50;2.43;;;;;21.00;100009.00;;;;2060460;28;20211;-64
2023/11/25 01:07:57;;;;;;;2.90;2.03;;;;;20.90;100004.00;;;;2063950;28;20273;-64
2023/11/25 01:08:58;;;;;;;5.20;2.60;;;;;21.00;100010.00;;;;2055630;28;20250;-65
2023/11/25 01:09:58;;;;;;;4.33;2.00;;;;;20.90;100009.00;;;;2062792;28;20706;-65
2023/11/25 01:10:59;;;;;;;3.77;1.70;;;;;21.00;100011.00;;;;2064054;28;20265;-65
2023/11/25 01:11:59;;;;;;;3.20;2.10;;;;;21.00;100005.00;;;;2062329;28;20215;-65
2023/11/25 01:12:59;;;;;;;5.83;2.20;;;;;21.00;100014.00;;;;2063419;28;20585;-65
2023/11/25 01:14:00;;;;;;;3.33;2.00;;;;;20.90;100012.00;;;;2055705;28;20222;-65
2023/11/25 01:15:02;;;;;;;4.30;2.20;;;;;21.00;100009.00;;;;2064433;28;20211;-65
2023/11/25 01:16:03;;;;;;;2.60;1.70;;;;;21.00;100004.00;;;;2066624;28;20244;-65
2023/11/25 01:17:03;;;;;;;4.30;2.40;;;;;21.00;100010.00;;;;2069808;28;20214;-65
2023/11/25 01:18:03;;;;;;;3.67;1.90;;;;;20.90;100009.00;;;;2063966;28;20265;-65
2023/11/25 01:19:04;;;;;;;3.67;1.53;;;;;21.00;100008.00;;;;2054949;28;20239;-65
2023/11/25 01:20:06;;;;;;;3.53;2.03;;;;;21.00;100005.00;;;;2064915;28;20268;-65
2023/11/25 01:21:06;;;;;;;4.60;2.13;;;;;21.00;100007.00;;;;2064668;28;20207;-65
2023/11/25 01:22:06;;;;;;;3.40;1.80;;;;;20.90;100014.00;;;;2064702;28;20207;-65
2023/11/25 01:23:07;;;;;;;3.60;1.80;;;;;21.00;100019.00;;;;2064527;28;20225;-65
2023/11/25 01:24:10;;;;;;;4.50;1.90;;;;;20.90;100011.00;;;;2059585;28;20250;-65
2023/11/25 01:25:11;;;;;;;2.78;1.40;;;;;20.90;100016.00;;;;2063807;28;20321;-65
2023/11/25 01:26:11;;;;;;;3.10;1.97;;;;;20.90;100019.00;;;;2067386;28;20620;-65
2023/11/25 01:27:12;;;;;;;2.53;1.70;;;;;20.90;100018.00;;;;2062090;28;20211;-65
2023/11/25 01:28:12;;;;;;;2.83;1.80;;;;;20.90;100026.00;;;;2064390;28;20226;-66
2023/11/25 01:29:13;;;;;;;2.80;1.60;;;;;20.90;100029.00;;;;2055126;28;20246;-65
2023/11/25 01:30:13;;;;;;;4.10;1.63;;;;;20.90;100020.00;;;;2062159;28;20211;-65
2023/11/25 01:31:14;;;;;;;3.63;1.60;;;;;20.90;100024.00;;;;2064251;28;20258;-65
2023/11/25 01:32:14;;;;;;;2.50;1.50;;;;;21.00;100023.00;;;;2064783;28;20358;-65
2023/11/25 01:33:15;;;;;;;3.73;1.77;;;;;20.90;100025.00;;;;2063916;28;20246;-65
2023/11/25 01:34:15;;;;;;;2.57;1.67;;;;;20.90;100023.00;;;;2055096;28;20328;-65
2023/11/25 01:35:15;;;;;;;3.60;1.80;;;;;20.90;100029.00;;;;2064819;28;20593;-65
2023/11/25 01:36:17;;;;;;;3.13;1.70;;;;;20.80;100019.00;;;;2063482;28;20211;-65
2023/11/25 01:37:17;;;;;;;3.75;1.90;;;;;20.80;100019.00;;;;2064368;28;20211;-65
2023/11/25 01:38:18;;;;;;;2.77;1.43;;;;;20.80;100015.00;;;;2064805;28;20225;-65
2023/11/25 01:39:18;;;;;;;2.70;1.40;;;;;20.90;100018.00;;;;2055026;28;20250;-65
2023/11/25 01:40:20;;;;;;;2.43;1.57;;;;;20.90;100019.00;;;;2064412;28;20472;-65
2023/11/25 01:41:21;;;;;;;4.18;1.77;;;;;20.80;100019.00;;;;2063787;28;20306;-65
2023/11/25 01:42:21;;;;;;;3.57;1.43;;;;;20.80;100024.00;;;;2067699;28;20214;-65
2023/11/25 01:43:23;;;;;;;3.30;1.47;;;;;20.90;100024.00;;;;2067390;28;20235;-65
2023/11/25 01:44:24;;;;;;;2.22;1.25;;;;;20.90;100023.00;;;;2051032;28;20210;-65
2023/11/25 01:45:27;;;;;;;4.10;1.70;;;;;20.80;100025.00;;;;2063938;28;20257;-65
2023/11/25 01:46:38;;;;;;;4.00;1.92;;;;;20.90;100029.00;;;;2063611;28;20298;-65
2023/11/25 01:47:38;;;;;;;2.40;1.35;;;;;20.70;99990.00;;;;2064360;28;20222;-65
2023/11/25 01:48:39;;;;;;;4.87;1.90;;;;;20.80;100015.00;;;;2051916;28;20240;-65
2023/11/25 01:49:39;;;;;;;2.90;1.50;;;;;20.80;100017.00;;;;2068551;28;20222;-65
2023/11/25 01:50:40;;;;;;;5.93;1.80;;;;;20.80;100016.00;;;;2065529;28;20247;-65
2023/11/25 01:51:44;;;;;;;4.20;1.47;;;;;20.80;100019.00;;;;2064955;28;20509;-65
2023/11/25 01:52:44;;;;;;;2.78;1.63;;;;;20.90;99981.00;;;;2064577;28;20694;-65
2023/11/25 01:53:44;;;;;;;2.60;1.93;;;;;20.80;100019.00;;;;2052660;28;20231;-65
2023/11/25 01:54:45;;;;;;;2.70;1.60;;;;;20.90;100015.00;;;;2066554;28;20248;-65
2023/11/25 01:55:45;;;;;;;3.30;1.50;;;;;20.80;100023.00;;;;2062023;28;20226;-65
2023/11/25 01:56:50;;;;;;;5.13;1.63;;;;;20.80;100026.00;;;;2053186;28;20290;-65
2023/11/25 01:57:50;;;;;;;3.50;1.83;;;;;20.80;100025.00;;;;2055513;28;20307;-65
2023/11/25 01:58:51;;;;;;;2.63;1.40;;;;;20.80;100028.00;;;;2054188;28;20221;-65
2023/11/25 01:59:51;;;;;;;4.00;2.00;;;;;20.70;100029.00;;;;2063617;28;20230;-65
2023/11/25 02:00:51;;;;;;;3.33;2.07;;;;;20.70;100030.00;;;;2062070;28;20218;-65
2023/11/25 02:01:52;;;;;;;2.87;1.63;;;;;20.80;100025.00;;;;2070646;28;20249;-65
2023/11/25 02:02:52;;;;;;;3.60;2.17;;;;;20.80;100026.00;;;;2071671;28;20261;-65
2023/11/25 02:03:52;;;;;;;3.13;1.83;;;;;20.80;100032.00;;;;2059357;28;20218;-65
2023/11/25 02:04:53;;;;;;;4.50;2.17;;;;;20.80;100034.00;;;;2064001;28;20260;-65
2023/11/25 02:05:53;;;;;;;4.07;1.87;;;;;20.80;100039.00;;;;2064248;28;20265;-65
2023/11/25 02:06:53;;;;;;;3.37;1.67;;;;;20.70;100038.00;;;;2062454;28;20222;-65
2023/11/25 02:07:54;;;;;;;3.53;1.87;;;;;20.70;100036.00;;;;2062431;28;20226;-65
2023/11/25 02:08:54;;;;;;;4.33;1.67;;;;;20.70;100032.00;;;;2052954;28;20216;-65
2023/11/25 02:09:55;;;;;;;4.33;1.67;;;;;20.70;100034.00;;;;2063867;28;20294;-65
2023/11/25 02:10:56;;;;;;;5.30;1.80;;;;;20.70;100035.00;;;;2067103;28;20265;-65
2023/11/25 02:12:01;;;;;;;3.08;1.48;;;;;20.80;100024.00;;;;2060697;28;20465;-65
2023/11/25 02:13:02;;;;;;;4.30;2.00;;;;;20.80;100037.00;;;;2063583;28;20217;-65
2023/11/25 02:14:02;;;;;;;3.10;1.50;;;;;20.80;100026.00;;;;2053146;28;20238;-65
2023/11/25 02:15:03;;;;;;;3.90;1.60;;;;;20.70;100020.00;;;;2062180;28;20447;-65
2023/11/25 02:16:04;;;;;;;3.80;1.70;;;;;20.70;100029.00;;;;2055378;28;20220;-65
2023/11/25 02:17:04;;;;;;;4.23;1.60;;;;;20.70;100030.00;;;;2052411;28;20262;-65
2023/11/25 02:18:05;;;;;;;6.10;1.83;;;;;20.70;100019.00;;;;2055029;28;20215;-65
2023/11/25 02:19:07;;;;;;;4.80;1.47;;;;;20.70;100022.00;;;;2054641;28;20237;-65
2023/11/25 02:20:10;;;;;;;3.22;1.60;;;;;20.80;100012.00;;;;2064103;28;20756;-65
2023/11/25 02:21:13;;;;;;;4.03;1.80;;;;;20.70;100024.00;;;;2062728;28;20226;-65
2023/11/25 02:22:15;;;;;;;3.50;1.60;;;;;20.70;100024.00;;;;2061668;28;20215;-65
2023/11/25 02:23:19;;;;;;;3.20;1.52;;;;;20.70;100024.00;;;;2068858;28;20309;-65
2023/11/25 02:24:20;;;;;;;3.20;1.75;;;;;20.70;100027.00;;;;2054581;28;20660;-65
2023/11/25 02:25:21;;;;;;;2.70;1.70;;;;;20.70;100029.00;;;;2066248;28;20222;-65
2023/11/25 02:26:22;;;;;;;2.50;1.20;;;;;20.70;100028.00;;;;2063977;28;20740;-65
2023/11/25 02:27:22;;;;;;;3.47;1.40;;;;;20.70;100031.00;;;;2065856;28;20218;-65
2023/11/25 02:28:23;;;;;;;3.97;1.55;;;;;20.70;100024.00;;;;2067635;28;20653;-65
2023/11/25 02:29:24;;;;;;;2.60;1.30;;;;;20.70;100032.00;;;;2054625;28;20257;-65
2023/11/25 02:30:24;;;;;;;3.27;1.70;;;;;20.70;100024.00;;;;2067689;28;20584;-65
2023/11/25 02:31:24;;;;;;;4.10;1.60;;;;;20.70;100019.00;;;;2061190;28;20242;-65
2023/11/25 02:32:25;;;;;;;5.00;1.50;;;;;20.70;100023.00;;;;2063851;28;20222;-65
2023/11/25 02:33:31;;;;;;;4.77;1.93;;;;;20.70;100025.00;;;;2064155;28;20250;-65
2023/11/25 02:34:31;;;;;;;6.57;1.75;;;;;20.70;100034.00;;;;2057031;28;20465;-65
2023/11/25 02:35:31;;;;;;;3.23;1.40;;;;;20.60;100025.00;;;;2066094;28;20215;-65
2023/11/25 02:36:33;;;;;;;4.83;1.80;;;;;20.70;100027.00;;;;2063481;28;20255;-64
2023/11/25 02:37:34;;;;;;;4.43;1.60;;;;;20.70;100032.00;;;;2061639;28;20310;-64
2023/11/25 02:38:34;;;;;;;3.95;1.90;;;;;20.60;100022.00;;;;2059477;28;20678;-64
2023/11/25 02:39:37;;;;;;;2.60;1.60;;;;;20.60;100030.00;;;;2060417;28;20258;-64
2023/11/25 02:40:39;;;;;;;3.75;1.67;;;;;20.60;100023.00;;;;2063985;28;20218;-64
2023/11/25 02:41:39;;;;;;;2.75;1.25;;;;;20.60;100028.00;;;;2068119;28;20268;-64
2023/11/25 02:42:40;;;;;;;2.55;1.23;;;;;20.60;100023.00;;;;2062332;28;20235;-64
2023/11/25 02:43:41;;;;;;;2.63;1.20;;;;;20.60;100024.00;;;;2055397;28;20265;-64
2023/11/25 02:44:41;;;;;;;4.87;1.67;;;;;20.60;100015.00;;;;2065344;28;20249;-64
2023/11/25 02:45:42;;;;;;;4.37;1.47;;;;;20.60;100024.00;;;;2063801;28;20250;-64
2023/11/25 02:46:44;;;;;;;3.03;1.33;;;;;20.60;100029.00;;;;2063742;28;20238;-64
2023/11/25 02:47:48;;;;;;;3.17;1.40;;;;;20.70;100020.00;;;;2064092;28;20566;-64
2023/11/25 02:48:49;;;;;;;4.38;1.77;;;;;20.60;100033.00;;;;2055158;28;20281;-64
2023/11/25 02:49:50;;;;;;;3.70;1.67;;;;;20.60;100024.00;;;;2063591;28;20218;-64
2023/11/25 02:50:50;;;;;;;2.87;1.37;;;;;20.70;100020.00;;;;2067903;28;20965;-64
2023/11/25 02:51:51;;;;;;;4.17;1.80;;;;;20.60;100026.00;;;;2064459;28;20218;-64
2023/11/25 02:52:51;;;;;;;3.20;1.40;;;;;20.60;100025.00;;;;2063201;28;20309;-64
2023/11/25 02:53:52;;;;;;;2.30;1.20;;;;;20.60;100023.00;;;;2053577;28;20218;-64
2023/11/25 02:54:52;;;;;;;4.60;1.90;;;;;20.60;100024.00;;;;2063981;28;20229;-64
2023/11/25 02:55:52;;;;;;;3.47;1.70;;;;;20.60;100030.00;;;;2057212;28;20230;-65
2023/11/25 02:56:53;;;;;;;4.23;1.53;;;;;20.50;100021.00;;;;2063170;28;20253;-65
2023/11/25 02:57:53;;;;;;;2.47;1.07;;;;;20.60;100034.00;;;;2061712;28;20214;-65
2023/11/25 02:58:53;;;;;;;3.77;1.63;;;;;20.60;100031.00;;;;2051333;28;20231;-65
2023/11/25 02:59:55;;;;;;;3.40;1.50;;;;;20.60;100037.00;;;;2063636;28;20215;-65
2023/11/25 03:01:01;;;;;;;2.00;1.42;;;;;20.60;100037.00;;;;2063305;28;20218;-65
2023/11/25 03:02:09;;;;;;;3.58;1.40;;;;;20.60;100042.00;;;;2063927;28;20207;-65
2023/11/25 03:03:12;;;;;;;3.83;1.60;;;;;20.60;100034.00;;;;2066356;28;20206;-65
2023/11/25 03:04:13;;;;;;;3.10;1.27;;;;;20.60;100037.00;;;;2045023;28;20778;-65
2023/11/25 03:05:14;;;;;;;3.60;1.80;;;;;20.60;100029.00;;;;2054283;28;20215;-65
2023/11/25 03:06:22;;;;;;;3.42;1.27;;;;;20.60;100030.00;;;;2063692;28;20571;-65
2023/11/25 03:07:22;;;;;;;3.47;1.52;;;;;20.60;100032.00;;;;2062658;28;20246;-65
2023/11/25 03:08:22;;;;;;;3.97;1.57;;;;;20.50;100025.00;;;;2063430;28;20686;-65
2023/11/25 03:09:22;;;;;;;2.83;1.43;;;;;20.50;100023.00;;;;2054896;28;20221;-65
2023/11/25 03:10:23;;;;;;;4.70;1.57;;;;;20.50;100024.00;;;;2067511;28;20242;-65
2023/11/25 03:11:26;;;;;;;2.83;1.53;;;;;20.50;100021.00;;;;2063583;28;20225;-65
2023/11/25 03:12:26;;;;;;;4.22;1.73;;;;;20.50;100002.00;;;;2064294;28;20269;-65
2023/11/25 03:13:26;;;;;;;3.97;1.50;;;;;20.50;100022.00;;;;2062603;28;20296;-65
2023/11/25 03:14:27;;;;;;;1.67;1.00;;;;;20.50;100018.00;;;;2052800;28;20222;-65
2023/11/25 03:15:27;;;;;;;3.30;1.47;;;;;20.50;100025.00;;;;2059917;28;20877;-65
2023/11/25 03:16:29;;;;;;;3.30;1.60;;;;;20.50;100017.00;;;;2063609;28;20222;-65
2023/11/25 03:17:29;;;;;;;2.67;1.15;;;;;20.50;100032.00;;;;2065349;28;20249;-65
2023/11/25 03:18:31;;;;;;;2.73;1.37;;;;;20.50;100031.00;;;;2063235;28;20275;-65
2023/11/25 03:19:32;;;;;;;3.22;1.65;;;;;20.50;100021.00;;;;2054500;28;20715;-65
2023/11/25 03:20:33;;;;;;;3.10;1.20;;;;;20.50;100031.00;;;;2064751;28;20225;-65
2023/11/25 03:21:34;;;;;;;2.60;1.35;;;;;20.50;100025.00;;;;2064213;28;20210;-65
2023/11/25 03:22:35;;;;;;;4.07;1.50;;;;;20.50;100027.00;;;;2064317;28;20769;-65
2023/11/25 03:23:36;;;;;;;3.67;1.37;;;;;20.50;100031.00;;;;2045139;28;20211;-65
2023/11/25 03:24:36;;;;;;;2.53;1.20;;;;;20.50;100029.00;;;;2064845;28;20311;-65
2023/11/25 03:25:38;;;;;;;4.20;1.60;;;;;20.50;100018.00;;;;2060516;28;20227;-65
2023/11/25 03:26:39;;;;;;;5.60;1.30;;;;;20.50;100033.00;;;;2066610;28;20210;-65
2023/11/25 03:27:39;;;;;;;3.53;1.40;;;;;20.50;100034.00;;;;2065553;28;20207;-65
2023/11/25 03:28:40;;;;;;;3.73;1.40;;;;;20.40;100028.00;;;;2062475;28;20221;-65
2023/11/25 03:29:40;;;;;;;2.20;1.40;;;;;20.40;100014.00;;;;2073773;28;20256;-65
2023/11/25 03:30:40;;;;;;;4.47;1.37;;;;;20.40;100017.00;;;;2071257;28;20218;-65
2023/11/25 03:31:41;;;;;;;2.50;1.10;;;;;20.50;100020.00;;;;2061470;28;20710;-65
2023/11/25 03:32:43;;;;;;;2.65;1.17;;;;;20.50;100021.00;;;;2055212;28;20223;-65
2023/11/25 03:33:43;;;;;;;3.15;1.20;;;;;20.50;100019.00;;;;2054105;28;20221;-65
2023/11/25 03:34:44;;;;;;;2.50;1.27;;;;;20.50;100020.00;;;;2063857;28;20255;-65
2023/11/25 03:35:44;;;;;;;2.70;1.30;;;;;20.40;100018.00;;;;2063658;28;20675;-65
2023/11/25 03:36:45;;;;;;;5.10;1.73;;;;;20.40;100031.00;;;;2063598;28;20219;-65
2023/11/25 03:37:45;;;;;;;3.40;1.10;;;;;20.50;100030.00;;;;2064264;28;20274;-65
2023/11/25 03:38:46;;;;;;;3.43;1.57;;;;;20.40;100024.00;;;;2055075;28;20226;-65
2023/11/25 03:39:46;;;;;;;4.90;1.70;;;;;20.50;100024.00;;;;2064391;28;20219;-65
2023/11/25 03:40:46;;;;;;;3.63;1.30;;;;;20.50;100022.00;;;;2062391;28;20237;-65
2023/11/25 03:41:47;;;;;;;4.80;1.40;;;;;20.50;100026.00;;;;2062154;28;20219;-65
2023/11/25 03:42:47;;;;;;;3.47;1.50;;;;;20.40;100028.00;;;;2057114;28;20220;-65
2023/11/25 03:43:47;;;;;;;5.37;1.90;;;;;20.40;100029.00;;;;2055093;28;20223;-65
2023/11/25 03:44:48;;;;;;;3.23;1.57;;;;;20.50;100043.00;;;;2063397;28;20638;-65
2023/11/25 03:45:48;;;;;;;4.70;1.77;;;;;20.50;100041.00;;;;2064532;28;20599;-65
2023/11/25 03:46:48;;;;;;;3.57;1.57;;;;;20.40;100031.00;;;;2063916;28;20638;-65
2023/11/25 03:47:51;;;;;;;3.00;1.10;;;;;20.40;100033.00;;;;2059757;28;20841;-65
2023/11/25 03:48:51;;;;;;;4.95;2.10;;;;;20.40;100035.00;;;;2054424;28;20222;-65
2023/11/25 03:49:52;;;;;;;2.53;1.40;;;;;20.50;100031.00;;;;2063939;28;20233;-65
2023/11/25 03:50:52;;;;;;;5.13;1.27;;;;;20.40;100028.00;;;;2064745;28;20646;-65
2023/11/25 03:51:52;;;;;;;4.10;1.53;;;;;20.40;100022.00;;;;2064057;28;20686;-65
2023/11/25 03:52:54;;;;;;;3.70;1.40;;;;;20.40;100020.00;;;;2068291;28;20275;-65
2023/11/25 03:53:54;;;;;;;3.10;1.30;;;;;20.30;100024.00;;;;2054977;28;20226;-65
2023/11/25 03:54:55;;;;;;;4.03;1.40;;;;;20.40;100030.00;;;;2063178;28;20234;-65
2023/11/25 03:55:55;;;;;;;3.87;1.50;;;;;20.40;100021.00;;;;2063909;28;20219;-65
2023/11/25 03:56:55;;;;;;;4.50;1.40;;;;;20.40;100019.00;;;;2063666;28;20648;-65
2023/11/25 03:57:55;;;;;;;3.57;1.27;;;;;20.40;100027.00;;;;2063601;28;20579;-65
2023/11/25 03:58:56;;;;;;;3.17;1.37;;;;;20.40;100016.00;;;;2052094;28;20240;-65
2023/11/25 03:59:56;;;;;;;3.17;1.50;;;;;20.40;100009.00;;;;2066740;28;20234;-65
2023/11/25 04:00:57;;;;;;;3.30;1.67;;;;;20.40;100014.00;;;;2064232;28;20242;-65
2023/11/25 04:01:57;;;;;;;3.27;1.50;;;;;20.40;100015.00;;;;2063248;28;20223;-65
2023/11/25 04:02:57;;;;;;;4.23;1.30;;;;;20.40;100020.00;;;;2063521;28;20297;-65
2023/11/25 04:03:58;;;;;;;3.73;1.20;;;;;20.40;100021.00;;;;2052899;28;20226;-65
2023/11/25 04:04:58;;;;;;;3.77;1.50;;;;;20.40;100019.00;;;;2062536;28;20219;-65
2023/11/25 04:05:58;;;;;;;4.33;1.70;;;;;20.40;100021.00;;;;2059896;28;20221;-65
2023/11/25 04:06:59;;;;;;;3.60;1.63;;;;;20.40;100019.00;;;;2064144;28;20222;-65
2023/11/25 04:07:59;;;;;;;4.60;1.90;;;;;20.30;100022.00;;;;2063600;28;20588;-65
2023/11/25 04:08:59;;;;;;;4.03;1.40;;;;;20.30;100020.00;;;;2049435;28;20234;-65
2023/11/25 04:10:06;;;;;;;2.60;1.23;;;;;20.40;100014.00;;;;2068190;28;20689;-65
2023/11/25 04:11:07;;;;;;;3.58;1.52;;;;;20.30;99999.00;;;;2053566;28;20223;-65
2023/11/25 04:12:10;;;;;;;3.50;1.20;;;;;20.40;100010.00;;;;2063459;28;20206;-65
2023/11/25 04:13:10;;;;;;;3.25;1.23;;;;;20.30;100012.00;;;;2061377;28;20211;-65
2023/11/25 04:14:10;;;;;;;3.87;1.40;;;;;20.40;100007.00;;;;2057907;28;20217;-65
2023/11/25 04:15:11;;;;;;;2.47;1.23;;;;;20.30;100006.00;;;;2069838;28;20276;-65
2023/11/25 04:16:11;;;;;;;3.87;1.50;;;;;20.40;100001.00;;;;2066218;28;20729;-65
2023/11/25 04:17:12;;;;;;;3.50;1.30;;;;;20.40;100004.00;;;;2069074;28;20216;-65
2023/11/25 04:18:13;;;;;;;2.97;1.20;;;;;20.30;100001.00;;;;2063364;28;20229;-65
2023/11/25 04:19:13;;;;;;;4.13;1.70;;;;;20.40;100003.00;;;;2053421;28;20223;-65
2023/11/25 04:20:14;;;;;;;4.00;1.63;;;;;20.30;100001.00;;;;2061732;28;20627;-65
2023/11/25 04:21:14;;;;;;;5.30;1.50;;;;;20.30;99998.00;;;;2063593;28;20646;-65
2023/11/25 04:22:14;;;;;;;3.60;1.33;;;;;20.30;100000.00;;;;2062995;28;20210;-65
2023/11/25 04:23:15;;;;;;;3.80;1.40;;;;;20.30;99992.00;;;;2070802;28;20198;-65
2023/11/25 04:24:17;;;;;;;4.77;1.30;;;;;20.30;99999.00;;;;2055607;28;20218;-65
2023/11/25 04:25:18;;;;;;;2.45;1.23;;;;;20.30;99999.00;;;;2060453;28;20225;-65
2023/11/25 04:26:19;;;;;;;5.35;1.45;;;;;20.30;99997.00;;;;2062529;28;20218;-65
2023/11/25 04:27:21;;;;;;;5.13;1.40;;;;;20.30;99994.00;;;;2063134;28;20215;-65
2023/11/25 04:28:21;;;;;;;4.03;1.42;;;;;20.20;100001.00;;;;2064220;28;20685;-65
2023/11/25 04:29:21;;;;;;;5.03;1.40;;;;;20.30;99998.00;;;;2059201;28;20214;-65
2023/11/25 04:30:22;;;;;;;3.57;1.50;;;;;20.30;100000.00;;;;2063641;28;20272;-65
2023/11/25 04:31:23;;;;;;;4.47;1.45;;;;;20.30;100002.00;;;;2067356;28;20242;-65
2023/11/25 04:32:24;;;;;;;3.10;1.30;;;;;20.30;99996.00;;;;2063499;28;20203;-65
2023/11/25 04:33:25;;;;;;;5.97;1.98;;;;;20.30;100003.00;;;;2063026;28;20610;-65
2023/11/25 04:34:25;;;;;;;4.13;1.40;;;;;20.30;99994.00;;;;2053748;28;20226;-65
2023/11/25 04:35:25;;;;;;;3.73;1.53;;;;;20.30;99995.00;;;;2062381;28;20332;-65
2023/11/25 04:36:26;;;;;;;3.90;1.43;;;;;20.30;100001.00;;;;2060413;28;20231;-65
2023/11/25 04:37:26;;;;;;;3.57;1.40;;;;;20.30;100001.00;;;;2065037;28;20242;-65
2023/11/25 04:38:26;;;;;;;3.87;1.57;;;;;20.30;99999.00;;;;2068000;28;20264;-65
2023/11/25 04:39:27;;;;;;;4.30;1.90;;;;;20.30;100001.00;;;;2055427;28;20227;-65
2023/11/25 04:40:27;;;;;;;4.30;1.57;;;;;20.30;100001.00;;;;2066855;28;20276;-65
2023/11/25 04:41:27;;;;;;;4.50;1.40;;;;;20.30;100009.00;;;;2068681;28;20214;-65
2023/11/25 04:42:28;;;;;;;4.37;1.47;;;;;20.30;100006.00;;;;2064672;28;20246;-65
2023/11/25 04:43:28;;;;;;;4.00;1.37;;;;;20.30;100011.00;;;;2063550;28;20223;-65
2023/11/25 04:44:29;;;;;;;2.77;1.47;;;;;20.30;100012.00;;;;2054967;28;20229;-65
2023/11/25 04:45:29;;;;;;;4.17;1.70;;;;;20.30;100017.00;;;;2064654;28;20245;-65
2023/11/25 04:46:30;;;;;;;6.20;1.60;;;;;20.30;100013.00;;;;2064728;28;20223;-65
2023/11/25 04:47:30;;;;;;;4.53;1.53;;;;;20.30;100018.00;;;;2064675;28;20257;-65
2023/11/25 04:48:30;;;;;;;3.47;1.50;;;;;20.30;100019.00;;;;2069535;28;20689;-65
2023/11/25 04:49:31;;;;;;;3.77;1.40;;;;;20.30;100022.00;;;;2055462;28;20682;-65
2023/11/25 04:50:31;;;;;;;3.00;1.50;;;;;20.30;100022.00;;;;2067146;28;20219;-65
2023/11/25 04:51:33;;;;;;;4.47;1.47;;;;;20.30;100019.00;;;;2065038;28;20219;-65
2023/11/25 04:52:33;;;;;;;4.25;1.30;;;;;20.30;100016.00;;;;2065330;28;20230;-65
2023/11/25 04:53:33;;;;;;;5.90;1.50;;;;;20.30;100020.00;;;;2062702;28;20225;-65
2023/11/25 04:54:34;;;;;;;6.53;2.07;;;;;20.30;100015.00;;;;2056721;28;20210;-65
2023/11/25 04:55:34;;;;;;;6.07;1.60;;;;;20.30;100013.00;;;;2064661;28;20238;-65
2023/11/25 04:56:35;;;;;;;5.07;1.70;;;;;20.30;100007.00;;;;2064580;28;20223;-65
2023/11/25 04:57:38;;;;;;;5.27;1.87;;;;;20.30;100009.00;;;;2067389;28;20297;-65
2023/11/25 04:58:40;;;;;;;3.17;1.30;;;;;20.20;100007.00;;;;2054855;28;20377;-65
2023/11/25 04:59:40;;;;;;;3.67;1.40;;;;;20.20;99968.00;;;;2068612;28;20718;-65
2023/11/25 05:00:40;;;;;;;2.40;1.07;;;;;20.30;100015.00;;;;2067902;28;20287;-65
2023/11/25 05:01:41;;;;;;;4.30;1.60;;;;;20.30;100013.00;;;;2056365;28;20262;-65